sensor_id;sensor_type;location;lat;lon;timestamp;P1;durP1;ratioP1;P2;durP2;ratioP2
908;SDS011;441;51.192;6.788;2023-03-30T00:00:50;9.90;;;9.60;;
908;SDS011;441;51.192;6.788;2023-03-30T00:03:17;9.63;;;9.33;;
908;SDS011;441;51.192;6.788;2023-03-30T00:05:46;10.20;;;9.83;;
908;SDS011;441;51.192;6.788;2023-03-30T00:08:14;9.27;;;9.07;;
908;SDS011;441;51.192;6.788;2023-03-30T00:10:42;9.20;;;9.00;;
908;SDS011;441;51.192;6.788;2023-03-30T00:13:10;8.93;;;8.73;;
908;SDS011;441;51.192;6.788;2023-03-30T00:15:37;8.83;;;8.63;;
908;SDS011;441;51.192;6.788;2023-03-30T00:18:06;9.80;;;9.60;;
908;SDS011;441;51.192;6.788;2023-03-30T00:20:33;9.83;;;9.53;;
908;SDS011;441;51.192;6.788;2023-03-30T00:23:01;9.43;;;9.23;;
908;SDS011;441;51.192;6.788;2023-03-30T00:25:28;10.47;;;10.17;;
908;SDS011;441;51.192;6.788;2023-03-30T00:27:55;10.10;;;9.90;;
908;SDS011;441;51.192;6.788;2023-03-30T00:30:22;10.20;;;9.90;;
908;SDS011;441;51.192;6.788;2023-03-30T00:32:48;9.70;;;9.50;;
908;SDS011;441;51.192;6.788;2023-03-30T00:35:17;9.33;;;9.13;;
908;SDS011;441;51.192;6.788;2023-03-30T00:37:45;10.23;;;9.90;;
908;SDS011;441;51.192;6.788;2023-03-30T00:40:14;9.20;;;9.00;;
908;SDS011;441;51.192;6.788;2023-03-30T00:42:43;9.43;;;9.10;;
908;SDS011;441;51.192;6.788;2023-03-30T00:45:18;9.70;;;9.50;;
908;SDS011;441;51.192;6.788;2023-03-30T00:47:49;9.83;;;9.43;;
908;SDS011;441;51.192;6.788;2023-03-30T00:50:24;9.17;;;8.97;;
908;SDS011;441;51.192;6.788;2023-03-30T00:52:54;10.30;;;10.00;;
908;SDS011;441;51.192;6.788;2023-03-30T00:55:25;9.93;;;9.63;;
908;SDS011;441;51.192;6.788;2023-03-30T00:57:55;10.07;;;9.77;;
908;SDS011;441;51.192;6.788;2023-03-30T01:00:22;10.10;;;9.90;;
908;SDS011;441;51.192;6.788;2023-03-30T01:02:50;10.37;;;10.07;;
908;SDS011;441;51.192;6.788;2023-03-30T01:05:24;9.80;;;9.50;;
908;SDS011;441;51.192;6.788;2023-03-30T01:07:52;10.00;;;9.80;;
908;SDS011;441;51.192;6.788;2023-03-30T01:10:22;9.67;;;9.47;;
908;SDS011;441;51.192;6.788;2023-03-30T01:12:49;9.70;;;9.50;;
908;SDS011;441;51.192;6.788;2023-03-30T01:15:16;10.40;;;10.10;;
908;SDS011;441;51.192;6.788;2023-03-30T01:17:52;9.67;;;9.47;;
908;SDS011;441;51.192;6.788;2023-03-30T01:20:38;9.47;;;9.27;;
908;SDS011;441;51.192;6.788;2023-03-30T01:26:46;9.60;;;9.40;;
908;SDS011;441;51.192;6.788;2023-03-30T01:29:21;9.80;;;9.60;;
908;SDS011;441;51.192;6.788;2023-03-30T01:32:20;10.77;;;10.47;;
908;SDS011;441;51.192;6.788;2023-03-30T01:38:30;9.80;;;9.60;;
908;SDS011;441;51.192;6.788;2023-03-30T01:41:12;9.40;;;9.20;;
908;SDS011;441;51.192;6.788;2023-03-30T01:43:47;10.00;;;9.70;;
908;SDS011;441;51.192;6.788;2023-03-30T01:46:23;10.40;;;10.10;;
908;SDS011;441;51.192;6.788;2023-03-30T01:48:56;10.10;;;9.90;;
908;SDS011;441;51.192;6.788;2023-03-30T01:51:28;9.97;;;9.77;;
908;SDS011;441;51.192;6.788;2023-03-30T01:54:00;9.57;;;9.37;;
908;SDS011;441;51.192;6.788;2023-03-30T01:56:34;9.60;;;9.40;;
908;SDS011;441;51.192;6.788;2023-03-30T01:59:04;9.40;;;9.20;;
908;SDS011;441;51.192;6.788;2023-03-30T02:01:36;10.20;;;10.00;;
908;SDS011;441;51.192;6.788;2023-03-30T02:04:06;9.40;;;9.10;;
908;SDS011;441;51.192;6.788;2023-03-30T02:06:36;10.10;;;9.80;;
908;SDS011;441;51.192;6.788;2023-03-30T02:09:07;9.93;;;9.73;;
908;SDS011;441;51.192;6.788;2023-03-30T02:11:38;9.87;;;9.67;;
908;SDS011;441;51.192;6.788;2023-03-30T02:14:08;9.90;;;9.70;;
908;SDS011;441;51.192;6.788;2023-03-30T02:16:39;10.20;;;10.00;;
908;SDS011;441;51.192;6.788;2023-03-30T02:19:10;9.60;;;9.40;;
908;SDS011;441;51.192;6.788;2023-03-30T02:21:37;9.90;;;9.60;;
908;SDS011;441;51.192;6.788;2023-03-30T02:24:05;9.90;;;9.70;;
908;SDS011;441;51.192;6.788;2023-03-30T02:26:43;9.50;;;9.20;;
908;SDS011;441;51.192;6.788;2023-03-30T02:29:11;9.30;;;9.10;;
908;SDS011;441;51.192;6.788;2023-03-30T02:31:38;9.00;;;8.80;;
908;SDS011;441;51.192;6.788;2023-03-30T02:34:08;10.47;;;10.17;;
908;SDS011;441;51.192;6.788;2023-03-30T02:36:54;9.87;;;9.67;;
908;SDS011;441;51.192;6.788;2023-03-30T02:39:38;9.33;;;9.10;;
908;SDS011;441;51.192;6.788;2023-03-30T02:45:16;9.87;;;9.67;;
908;SDS011;441;51.192;6.788;2023-03-30T02:47:51;10.20;;;9.90;;
908;SDS011;441;51.192;6.788;2023-03-30T02:50:28;10.20;;;10.00;;
908;SDS011;441;51.192;6.788;2023-03-30T02:53:01;9.90;;;9.60;;
908;SDS011;441;51.192;6.788;2023-03-30T02:55:37;9.40;;;9.20;;
908;SDS011;441;51.192;6.788;2023-03-30T02:58:13;9.63;;;9.33;;
908;SDS011;441;51.192;6.788;2023-03-30T03:00:45;9.90;;;9.70;;
908;SDS011;441;51.192;6.788;2023-03-30T03:03:17;9.23;;;9.03;;
908;SDS011;441;51.192;6.788;2023-03-30T03:05:47;9.53;;;9.33;;
908;SDS011;441;51.192;6.788;2023-03-30T03:08:18;9.70;;;9.50;;
908;SDS011;441;51.192;6.788;2023-03-30T03:10:48;10.03;;;9.80;;
908;SDS011;441;51.192;6.788;2023-03-30T03:13:17;9.90;;;9.70;;
908;SDS011;441;51.192;6.788;2023-03-30T03:15:46;9.80;;;9.60;;
908;SDS011;441;51.192;6.788;2023-03-30T03:18:13;10.53;;;10.30;;
908;SDS011;441;51.192;6.788;2023-03-30T03:20:40;10.27;;;10.07;;
908;SDS011;441;51.192;6.788;2023-03-30T03:23:07;9.40;;;9.20;;
908;SDS011;441;51.192;6.788;2023-03-30T03:25:34;9.37;;;9.17;;
908;SDS011;441;51.192;6.788;2023-03-30T03:28:01;9.50;;;9.30;;
908;SDS011;441;51.192;6.788;2023-03-30T03:30:30;9.63;;;9.37;;
908;SDS011;441;51.192;6.788;2023-03-30T03:32:56;9.23;;;9.03;;
908;SDS011;441;51.192;6.788;2023-03-30T03:35:23;9.40;;;9.20;;
908;SDS011;441;51.192;6.788;2023-03-30T03:37:51;9.80;;;9.60;;
908;SDS011;441;51.192;6.788;2023-03-30T03:40:18;9.60;;;9.40;;
908;SDS011;441;51.192;6.788;2023-03-30T03:42:45;9.77;;;9.57;;
908;SDS011;441;51.192;6.788;2023-03-30T03:45:12;9.97;;;9.77;;
908;SDS011;441;51.192;6.788;2023-03-30T03:47:41;10.00;;;9.80;;
908;SDS011;441;51.192;6.788;2023-03-30T03:50:08;10.13;;;9.93;;
908;SDS011;441;51.192;6.788;2023-03-30T03:52:35;9.90;;;9.60;;
908;SDS011;441;51.192;6.788;2023-03-30T03:55:03;9.20;;;9.00;;
908;SDS011;441;51.192;6.788;2023-03-30T03:57:30;9.73;;;9.53;;
908;SDS011;441;51.192;6.788;2023-03-30T03:59:57;9.20;;;8.97;;
908;SDS011;441;51.192;6.788;2023-03-30T04:02:24;9.57;;;9.37;;
908;SDS011;441;51.192;6.788;2023-03-30T04:04:53;10.00;;;9.80;;
908;SDS011;441;51.192;6.788;2023-03-30T04:07:21;9.50;;;9.30;;
908;SDS011;441;51.192;6.788;2023-03-30T04:09:50;9.70;;;9.50;;
908;SDS011;441;51.192;6.788;2023-03-30T04:12:16;9.80;;;9.60;;
908;SDS011;441;51.192;6.788;2023-03-30T04:14:44;10.13;;;9.93;;
908;SDS011;441;51.192;6.788;2023-03-30T04:17:11;10.27;;;9.97;;
908;SDS011;441;51.192;6.788;2023-03-30T04:19:38;10.13;;;9.90;;
908;SDS011;441;51.192;6.788;2023-03-30T04:22:07;9.70;;;9.50;;
908;SDS011;441;51.192;6.788;2023-03-30T04:24:37;10.40;;;9.60;;
908;SDS011;441;51.192;6.788;2023-03-30T04:27:05;9.20;;;8.60;;
908;SDS011;441;51.192;6.788;2023-03-30T04:29:33;9.57;;;9.30;;
908;SDS011;441;51.192;6.788;2023-03-30T04:32:06;10.07;;;9.83;;
908;SDS011;441;51.192;6.788;2023-03-30T04:34:34;9.60;;;9.40;;
908;SDS011;441;51.192;6.788;2023-03-30T04:37:01;11.00;;;10.70;;
908;SDS011;441;51.192;6.788;2023-03-30T04:39:29;9.60;;;9.40;;
908;SDS011;441;51.192;6.788;2023-03-30T04:41:56;9.63;;;9.43;;
908;SDS011;441;51.192;6.788;2023-03-30T04:44:26;10.10;;;9.80;;
908;SDS011;441;51.192;6.788;2023-03-30T04:46:53;9.50;;;9.20;;
908;SDS011;441;51.192;6.788;2023-03-30T04:49:20;9.80;;;9.50;;
908;SDS011;441;51.192;6.788;2023-03-30T04:51:47;9.50;;;9.30;;
908;SDS011;441;51.192;6.788;2023-03-30T04:54:14;9.10;;;8.90;;
908;SDS011;441;51.192;6.788;2023-03-30T04:56:42;9.40;;;9.20;;
908;SDS011;441;51.192;6.788;2023-03-30T04:59:09;9.30;;;9.00;;
908;SDS011;441;51.192;6.788;2023-03-30T05:01:36;9.00;;;8.80;;
908;SDS011;441;51.192;6.788;2023-03-30T05:04:03;9.00;;;8.70;;
908;SDS011;441;51.192;6.788;2023-03-30T05:06:30;9.03;;;8.83;;
908;SDS011;441;51.192;6.788;2023-03-30T05:08:57;8.70;;;8.40;;
908;SDS011;441;51.192;6.788;2023-03-30T05:11:24;8.70;;;8.50;;
908;SDS011;441;51.192;6.788;2023-03-30T05:13:52;8.80;;;8.50;;
908;SDS011;441;51.192;6.788;2023-03-30T05:16:19;8.03;;;7.73;;
908;SDS011;441;51.192;6.788;2023-03-30T05:18:46;8.97;;;8.77;;
908;SDS011;441;51.192;6.788;2023-03-30T05:21:13;9.30;;;9.00;;
908;SDS011;441;51.192;6.788;2023-03-30T05:23:40;8.73;;;8.23;;
908;SDS011;441;51.192;6.788;2023-03-30T05:26:07;9.30;;;9.10;;
908;SDS011;441;51.192;6.788;2023-03-30T05:28:34;9.90;;;9.60;;
908;SDS011;441;51.192;6.788;2023-03-30T05:31:02;8.80;;;8.50;;
908;SDS011;441;51.192;6.788;2023-03-30T05:33:30;8.57;;;8.37;;
908;SDS011;441;51.192;6.788;2023-03-30T05:35:56;9.53;;;9.27;;
908;SDS011;441;51.192;6.788;2023-03-30T05:38:23;9.03;;;8.73;;
908;SDS011;441;51.192;6.788;2023-03-30T05:40:50;9.00;;;8.80;;
908;SDS011;441;51.192;6.788;2023-03-30T05:43:17;8.50;;;8.30;;
908;SDS011;441;51.192;6.788;2023-03-30T05:45:45;8.60;;;8.37;;
908;SDS011;441;51.192;6.788;2023-03-30T05:48:13;8.80;;;8.60;;
908;SDS011;441;51.192;6.788;2023-03-30T05:50:40;9.50;;;9.30;;
908;SDS011;441;51.192;6.788;2023-03-30T05:53:07;10.10;;;9.80;;
908;SDS011;441;51.192;6.788;2023-03-30T05:55:34;9.50;;;9.20;;
908;SDS011;441;51.192;6.788;2023-03-30T05:58:00;9.20;;;8.90;;
908;SDS011;441;51.192;6.788;2023-03-30T06:00:28;10.43;;;10.13;;
908;SDS011;441;51.192;6.788;2023-03-30T06:02:57;10.67;;;10.20;;
908;SDS011;441;51.192;6.788;2023-03-30T06:05:25;9.90;;;9.60;;
908;SDS011;441;51.192;6.788;2023-03-30T06:07:52;9.57;;;9.27;;
908;SDS011;441;51.192;6.788;2023-03-30T06:10:20;9.80;;;9.40;;
908;SDS011;441;51.192;6.788;2023-03-30T06:12:46;10.37;;;10.07;;
908;SDS011;441;51.192;6.788;2023-03-30T06:15:13;10.00;;;9.80;;
908;SDS011;441;51.192;6.788;2023-03-30T06:17:40;9.60;;;9.40;;
908;SDS011;441;51.192;6.788;2023-03-30T06:20:08;9.00;;;8.80;;
908;SDS011;441;51.192;6.788;2023-03-30T06:22:38;9.67;;;9.37;;
908;SDS011;441;51.192;6.788;2023-03-30T06:25:06;9.87;;;9.60;;
908;SDS011;441;51.192;6.788;2023-03-30T06:27:34;9.90;;;9.60;;
908;SDS011;441;51.192;6.788;2023-03-30T06:30:01;9.47;;;8.87;;
908;SDS011;441;51.192;6.788;2023-03-30T06:32:29;9.63;;;9.43;;
908;SDS011;441;51.192;6.788;2023-03-30T06:34:56;9.30;;;9.00;;
908;SDS011;441;51.192;6.788;2023-03-30T06:37:23;9.23;;;9.03;;
908;SDS011;441;51.192;6.788;2023-03-30T06:39:51;10.77;;;10.27;;
908;SDS011;441;51.192;6.788;2023-03-30T06:42:18;10.17;;;9.80;;
908;SDS011;441;51.192;6.788;2023-03-30T06:44:45;11.40;;;11.00;;
908;SDS011;441;51.192;6.788;2023-03-30T06:47:12;10.37;;;10.10;;
908;SDS011;441;51.192;6.788;2023-03-30T06:49:40;9.93;;;9.63;;
908;SDS011;441;51.192;6.788;2023-03-30T06:52:06;10.17;;;9.77;;
908;SDS011;441;51.192;6.788;2023-03-30T06:54:33;10.20;;;9.90;;
908;SDS011;441;51.192;6.788;2023-03-30T06:57:02;9.70;;;9.40;;
908;SDS011;441;51.192;6.788;2023-03-30T06:59:29;10.60;;;10.30;;
908;SDS011;441;51.192;6.788;2023-03-30T07:01:57;10.00;;;9.70;;
908;SDS011;441;51.192;6.788;2023-03-30T07:04:24;9.60;;;9.20;;
908;SDS011;441;51.192;6.788;2023-03-30T07:06:51;10.30;;;10.00;;
908;SDS011;441;51.192;6.788;2023-03-30T07:09:21;10.10;;;9.80;;
908;SDS011;441;51.192;6.788;2023-03-30T07:11:48;10.60;;;10.30;;
908;SDS011;441;51.192;6.788;2023-03-30T07:14:17;10.73;;;10.43;;
908;SDS011;441;51.192;6.788;2023-03-30T07:16:43;10.83;;;10.33;;
908;SDS011;441;51.192;6.788;2023-03-30T07:19:12;9.93;;;9.63;;
908;SDS011;441;51.192;6.788;2023-03-30T07:21:39;9.70;;;9.10;;
908;SDS011;441;51.192;6.788;2023-03-30T07:24:06;10.40;;;10.10;;
908;SDS011;441;51.192;6.788;2023-03-30T07:26:33;10.10;;;9.80;;
908;SDS011;441;51.192;6.788;2023-03-30T07:29:00;9.90;;;9.70;;
908;SDS011;441;51.192;6.788;2023-03-30T07:31:30;9.70;;;9.40;;
908;SDS011;441;51.192;6.788;2023-03-30T07:33:56;10.20;;;10.00;;
908;SDS011;441;51.192;6.788;2023-03-30T07:36:23;9.97;;;9.67;;
908;SDS011;441;51.192;6.788;2023-03-30T07:38:50;10.40;;;10.10;;
908;SDS011;441;51.192;6.788;2023-03-30T07:41:17;10.73;;;10.43;;
908;SDS011;441;51.192;6.788;2023-03-30T07:43:45;11.10;;;10.80;;
908;SDS011;441;51.192;6.788;2023-03-30T07:46:12;10.00;;;9.70;;
908;SDS011;441;51.192;6.788;2023-03-30T07:48:40;10.77;;;10.47;;
908;SDS011;441;51.192;6.788;2023-03-30T07:51:07;9.77;;;9.50;;
908;SDS011;441;51.192;6.788;2023-03-30T07:53:37;10.90;;;10.43;;
908;SDS011;441;51.192;6.788;2023-03-30T07:56:05;10.00;;;9.80;;
908;SDS011;441;51.192;6.788;2023-03-30T07:58:32;10.20;;;9.70;;
908;SDS011;441;51.192;6.788;2023-03-30T08:00:59;10.10;;;9.80;;
908;SDS011;441;51.192;6.788;2023-03-30T08:03:27;10.00;;;9.60;;
908;SDS011;441;51.192;6.788;2023-03-30T08:05:58;10.53;;;10.13;;
908;SDS011;441;51.192;6.788;2023-03-30T08:08:28;10.50;;;10.20;;
908;SDS011;441;51.192;6.788;2023-03-30T08:10:55;10.53;;;10.23;;
908;SDS011;441;51.192;6.788;2023-03-30T08:13:22;10.90;;;10.60;;
908;SDS011;441;51.192;6.788;2023-03-30T08:15:49;11.73;;;10.73;;
908;SDS011;441;51.192;6.788;2023-03-30T08:18:18;10.07;;;9.77;;
908;SDS011;441;51.192;6.788;2023-03-30T08:20:48;10.10;;;9.80;;
908;SDS011;441;51.192;6.788;2023-03-30T08:23:17;10.40;;;10.10;;
908;SDS011;441;51.192;6.788;2023-03-30T08:25:46;10.00;;;9.70;;
908;SDS011;441;51.192;6.788;2023-03-30T08:28:16;9.80;;;9.60;;
908;SDS011;441;51.192;6.788;2023-03-30T08:30:44;11.03;;;10.73;;
908;SDS011;441;51.192;6.788;2023-03-30T08:33:11;10.37;;;9.67;;
908;SDS011;441;51.192;6.788;2023-03-30T08:35:38;10.00;;;9.60;;
908;SDS011;441;51.192;6.788;2023-03-30T08:38:05;10.50;;;10.20;;
908;SDS011;441;51.192;6.788;2023-03-30T08:40:38;11.43;;;10.97;;
908;SDS011;441;51.192;6.788;2023-03-30T08:43:11;11.27;;;10.97;;
908;SDS011;441;51.192;6.788;2023-03-30T08:45:58;11.47;;;10.97;;
908;SDS011;441;51.192;6.788;2023-03-30T08:48:26;11.10;;;10.80;;
908;SDS011;441;51.192;6.788;2023-03-30T08:50:58;11.83;;;11.43;;
908;SDS011;441;51.192;6.788;2023-03-30T08:53:27;12.80;;;12.30;;
908;SDS011;441;51.192;6.788;2023-03-30T08:55:57;11.77;;;11.47;;
908;SDS011;441;51.192;6.788;2023-03-30T08:58:30;12.07;;;11.67;;
908;SDS011;441;51.192;6.788;2023-03-30T09:01:07;12.00;;;11.43;;
908;SDS011;441;51.192;6.788;2023-03-30T09:03:40;12.30;;;11.87;;
908;SDS011;441;51.192;6.788;2023-03-30T09:06:17;12.00;;;11.50;;
908;SDS011;441;51.192;6.788;2023-03-30T09:08:52;10.90;;;10.50;;
908;SDS011;441;51.192;6.788;2023-03-30T09:11:23;11.80;;;11.50;;
908;SDS011;441;51.192;6.788;2023-03-30T09:13:56;10.68;;;10.18;;
908;SDS011;441;51.192;6.788;2023-03-30T09:16:28;11.67;;;11.27;;
908;SDS011;441;51.192;6.788;2023-03-30T09:19:01;11.53;;;11.23;;
908;SDS011;441;51.192;6.788;2023-03-30T09:21:34;11.57;;;11.07;;
908;SDS011;441;51.192;6.788;2023-03-30T09:24:05;11.70;;;11.30;;
908;SDS011;441;51.192;6.788;2023-03-30T09:26:41;11.20;;;10.90;;
908;SDS011;441;51.192;6.788;2023-03-30T09:29:16;11.33;;;11.00;;
908;SDS011;441;51.192;6.788;2023-03-30T09:31:46;11.10;;;10.80;;
908;SDS011;441;51.192;6.788;2023-03-30T09:34:20;12.40;;;11.73;;
908;SDS011;441;51.192;6.788;2023-03-30T09:36:54;11.27;;;10.97;;
908;SDS011;441;51.192;6.788;2023-03-30T09:39:23;11.20;;;10.80;;
908;SDS011;441;51.192;6.788;2023-03-30T09:41:55;11.27;;;10.67;;
908;SDS011;441;51.192;6.788;2023-03-30T09:44:34;12.13;;;11.17;;
908;SDS011;441;51.192;6.788;2023-03-30T09:47:06;10.63;;;10.10;;
908;SDS011;441;51.192;6.788;2023-03-30T09:49:43;12.40;;;11.80;;
908;SDS011;441;51.192;6.788;2023-03-30T09:52:13;9.83;;;9.50;;
908;SDS011;441;51.192;6.788;2023-03-30T09:54:46;9.83;;;9.53;;
908;SDS011;441;51.192;6.788;2023-03-30T09:57:22;17.97;;;17.47;;
908;SDS011;441;51.192;6.788;2023-03-30T09:59:51;19.20;;;18.43;;
908;SDS011;441;51.192;6.788;2023-03-30T10:02:20;17.52;;;16.73;;
908;SDS011;441;51.192;6.788;2023-03-30T10:04:55;18.57;;;17.87;;
908;SDS011;441;51.192;6.788;2023-03-30T10:07:28;18.70;;;17.90;;
908;SDS011;441;51.192;6.788;2023-03-30T10:09:58;19.30;;;18.20;;
908;SDS011;441;51.192;6.788;2023-03-30T10:12:28;18.10;;;17.40;;
908;SDS011;441;51.192;6.788;2023-03-30T10:14:56;18.20;;;17.40;;
908;SDS011;441;51.192;6.788;2023-03-30T10:17:28;18.70;;;17.90;;
908;SDS011;441;51.192;6.788;2023-03-30T10:22:49;19.20;;;18.40;;
908;SDS011;441;51.192;6.788;2023-03-30T10:25:18;17.90;;;17.20;;
908;SDS011;441;51.192;6.788;2023-03-30T10:27:50;17.20;;;16.70;;
908;SDS011;441;51.192;6.788;2023-03-30T10:30:20;18.53;;;17.83;;
908;SDS011;441;51.192;6.788;2023-03-30T10:32:50;17.10;;;16.43;;
908;SDS011;441;51.192;6.788;2023-03-30T10:35:19;18.10;;;17.50;;
908;SDS011;441;51.192;6.788;2023-03-30T10:37:49;18.10;;;17.40;;
908;SDS011;441;51.192;6.788;2023-03-30T10:40:18;17.97;;;17.27;;
908;SDS011;441;51.192;6.788;2023-03-30T10:42:50;18.43;;;17.63;;
908;SDS011;441;51.192;6.788;2023-03-30T10:45:22;17.70;;;17.10;;
908;SDS011;441;51.192;6.788;2023-03-30T10:47:57;17.97;;;17.37;;
908;SDS011;441;51.192;6.788;2023-03-30T10:50:31;18.53;;;17.93;;
908;SDS011;441;51.192;6.788;2023-03-30T10:53:10;18.30;;;17.33;;
908;SDS011;441;51.192;6.788;2023-03-30T10:55:51;18.90;;;18.10;;
908;SDS011;441;51.192;6.788;2023-03-30T10:58:28;19.30;;;18.47;;
908;SDS011;441;51.192;6.788;2023-03-30T11:01:10;18.40;;;17.70;;
908;SDS011;441;51.192;6.788;2023-03-30T11:03:43;18.27;;;17.67;;
908;SDS011;441;51.192;6.788;2023-03-30T11:06:13;17.90;;;17.20;;
908;SDS011;441;51.192;6.788;2023-03-30T11:08:46;19.40;;;18.70;;
908;SDS011;441;51.192;6.788;2023-03-30T11:11:17;18.63;;;17.93;;
908;SDS011;441;51.192;6.788;2023-03-30T11:13:48;19.03;;;18.23;;
908;SDS011;441;51.192;6.788;2023-03-30T11:16:20;19.10;;;18.23;;
908;SDS011;441;51.192;6.788;2023-03-30T11:18:51;17.87;;;17.27;;
908;SDS011;441;51.192;6.788;2023-03-30T11:21:23;18.57;;;17.77;;
908;SDS011;441;51.192;6.788;2023-03-30T11:23:56;19.17;;;18.47;;
908;SDS011;441;51.192;6.788;2023-03-30T11:26:29;18.27;;;17.50;;
908;SDS011;441;51.192;6.788;2023-03-30T11:29:12;17.67;;;17.07;;
908;SDS011;441;51.192;6.788;2023-03-30T11:31:52;18.97;;;18.00;;
908;SDS011;441;51.192;6.788;2023-03-30T11:34:27;17.80;;;17.20;;
908;SDS011;441;51.192;6.788;2023-03-30T11:36:59;17.90;;;17.10;;
908;SDS011;441;51.192;6.788;2023-03-30T11:39:29;17.80;;;17.20;;
908;SDS011;441;51.192;6.788;2023-03-30T11:41:59;17.80;;;17.20;;
908;SDS011;441;51.192;6.788;2023-03-30T11:44:33;17.90;;;17.30;;
908;SDS011;441;51.192;6.788;2023-03-30T11:47:04;17.47;;;16.87;;
908;SDS011;441;51.192;6.788;2023-03-30T11:49:56;18.17;;;17.57;;
908;SDS011;441;51.192;6.788;2023-03-30T11:52:34;17.57;;;17.00;;
908;SDS011;441;51.192;6.788;2023-03-30T11:55:19;17.57;;;16.77;;
908;SDS011;441;51.192;6.788;2023-03-30T11:57:59;18.50;;;17.90;;
908;SDS011;441;51.192;6.788;2023-03-30T12:00:39;17.20;;;16.50;;
908;SDS011;441;51.192;6.788;2023-03-30T12:03:16;18.40;;;17.50;;
908;SDS011;441;51.192;6.788;2023-03-30T12:05:52;17.10;;;16.50;;
908;SDS011;441;51.192;6.788;2023-03-30T12:08:29;16.97;;;16.37;;
908;SDS011;441;51.192;6.788;2023-03-30T12:11:11;18.00;;;17.27;;
908;SDS011;441;51.192;6.788;2023-03-30T12:13:46;19.07;;;18.00;;
908;SDS011;441;51.192;6.788;2023-03-30T12:16:16;19.00;;;18.10;;
908;SDS011;441;51.192;6.788;2023-03-30T12:18:49;18.20;;;17.40;;
908;SDS011;441;51.192;6.788;2023-03-30T12:21:26;18.03;;;17.30;;
908;SDS011;441;51.192;6.788;2023-03-30T12:23:59;19.03;;;18.23;;
908;SDS011;441;51.192;6.788;2023-03-30T12:26:33;17.80;;;17.00;;
908;SDS011;441;51.192;6.788;2023-03-30T12:29:06;17.43;;;16.73;;
908;SDS011;441;51.192;6.788;2023-03-30T12:34:43;17.73;;;17.17;;
908;SDS011;441;51.192;6.788;2023-03-30T12:37:11;17.33;;;16.73;;
908;SDS011;441;51.192;6.788;2023-03-30T12:39:41;18.67;;;17.97;;
908;SDS011;441;51.192;6.788;2023-03-30T12:42:18;18.37;;;17.53;;
908;SDS011;441;51.192;6.788;2023-03-30T12:44:55;17.67;;;17.10;;
908;SDS011;441;51.192;6.788;2023-03-30T12:50:52;17.63;;;17.03;;
908;SDS011;441;51.192;6.788;2023-03-30T12:53:36;18.63;;;18.00;;
908;SDS011;441;51.192;6.788;2023-03-30T12:56:25;17.23;;;16.63;;
908;SDS011;441;51.192;6.788;2023-03-30T12:59:04;18.20;;;17.50;;
908;SDS011;441;51.192;6.788;2023-03-30T13:01:49;18.37;;;17.67;;
908;SDS011;441;51.192;6.788;2023-03-30T13:04:25;17.23;;;16.73;;
908;SDS011;441;51.192;6.788;2023-03-30T13:06:56;17.60;;;17.00;;
908;SDS011;441;51.192;6.788;2023-03-30T13:09:29;17.50;;;16.90;;
908;SDS011;441;51.192;6.788;2023-03-30T13:14:59;17.27;;;16.50;;
908;SDS011;441;51.192;6.788;2023-03-30T13:20:15;17.53;;;17.03;;
908;SDS011;441;51.192;6.788;2023-03-30T13:22:58;18.20;;;17.60;;
908;SDS011;441;51.192;6.788;2023-03-30T13:25:42;18.73;;;18.13;;
908;SDS011;441;51.192;6.788;2023-03-30T13:31:02;17.90;;;17.20;;
908;SDS011;441;51.192;6.788;2023-03-30T13:33:35;18.97;;;18.43;;
908;SDS011;441;51.192;6.788;2023-03-30T13:36:07;17.63;;;17.13;;
908;SDS011;441;51.192;6.788;2023-03-30T13:38:41;17.50;;;17.00;;
908;SDS011;441;51.192;6.788;2023-03-30T13:41:24;17.47;;;16.77;;
908;SDS011;441;51.192;6.788;2023-03-30T13:44:00;16.93;;;16.43;;
908;SDS011;441;51.192;6.788;2023-03-30T13:46:39;17.70;;;17.20;;
908;SDS011;441;51.192;6.788;2023-03-30T13:49:14;16.63;;;16.17;;
908;SDS011;441;51.192;6.788;2023-03-30T13:51:59;16.03;;;15.63;;
908;SDS011;441;51.192;6.788;2023-03-30T13:54:30;16.30;;;15.80;;
908;SDS011;441;51.192;6.788;2023-03-30T13:57:00;17.23;;;16.63;;
908;SDS011;441;51.192;6.788;2023-03-30T13:59:33;16.47;;;15.97;;
908;SDS011;441;51.192;6.788;2023-03-30T14:02:03;18.60;;;18.10;;
908;SDS011;441;51.192;6.788;2023-03-30T14:04:31;18.17;;;17.47;;
908;SDS011;441;51.192;6.788;2023-03-30T14:09:34;18.73;;;18.03;;
908;SDS011;441;51.192;6.788;2023-03-30T14:12:02;17.27;;;16.47;;
908;SDS011;441;51.192;6.788;2023-03-30T14:14:32;17.63;;;16.67;;
908;SDS011;441;51.192;6.788;2023-03-30T14:17:02;16.10;;;15.50;;
908;SDS011;441;51.192;6.788;2023-03-30T14:19:39;16.00;;;15.50;;
908;SDS011;441;51.192;6.788;2023-03-30T14:22:15;15.40;;;14.70;;
908;SDS011;441;51.192;6.788;2023-03-30T14:24:56;18.73;;;18.00;;
908;SDS011;441;51.192;6.788;2023-03-30T14:27:24;20.13;;;19.33;;
908;SDS011;441;51.192;6.788;2023-03-30T14:29:51;20.40;;;19.70;;
908;SDS011;441;51.192;6.788;2023-03-30T14:32:18;19.03;;;18.20;;
908;SDS011;441;51.192;6.788;2023-03-30T14:34:48;18.70;;;18.00;;
908;SDS011;441;51.192;6.788;2023-03-30T14:37:15;19.23;;;18.43;;
908;SDS011;441;51.192;6.788;2023-03-30T14:39:44;18.63;;;18.03;;
908;SDS011;441;51.192;6.788;2023-03-30T14:42:15;16.93;;;16.20;;
908;SDS011;441;51.192;6.788;2023-03-30T14:44:43;17.87;;;17.17;;
908;SDS011;441;51.192;6.788;2023-03-30T14:47:12;17.40;;;16.40;;
908;SDS011;441;51.192;6.788;2023-03-30T14:49:40;19.20;;;18.40;;
908;SDS011;441;51.192;6.788;2023-03-30T14:52:12;19.23;;;18.43;;
908;SDS011;441;51.192;6.788;2023-03-30T14:54:41;21.23;;;20.13;;
908;SDS011;441;51.192;6.788;2023-03-30T14:57:11;20.27;;;19.03;;
908;SDS011;441;51.192;6.788;2023-03-30T14:59:42;18.80;;;17.70;;
908;SDS011;441;51.192;6.788;2023-03-30T15:02:15;18.23;;;17.43;;
908;SDS011;441;51.192;6.788;2023-03-30T15:04:45;19.70;;;18.90;;
908;SDS011;441;51.192;6.788;2023-03-30T15:07:13;19.27;;;18.60;;
908;SDS011;441;51.192;6.788;2023-03-30T15:09:41;18.30;;;17.40;;
908;SDS011;441;51.192;6.788;2023-03-30T15:12:14;18.07;;;17.37;;
908;SDS011;441;51.192;6.788;2023-03-30T15:14:46;18.87;;;18.07;;
908;SDS011;441;51.192;6.788;2023-03-30T15:17:17;18.97;;;17.80;;
908;SDS011;441;51.192;6.788;2023-03-30T15:19:47;19.00;;;17.90;;
908;SDS011;441;51.192;6.788;2023-03-30T15:22:20;19.83;;;18.63;;
908;SDS011;441;51.192;6.788;2023-03-30T15:24:51;18.47;;;17.50;;
908;SDS011;441;51.192;6.788;2023-03-30T15:27:20;9.77;;;8.90;;
908;SDS011;441;51.192;6.788;2023-03-30T15:29:50;9.40;;;8.90;;
908;SDS011;441;51.192;6.788;2023-03-30T15:32:19;9.40;;;8.70;;
908;SDS011;441;51.192;6.788;2023-03-30T15:34:58;9.60;;;8.90;;
908;SDS011;441;51.192;6.788;2023-03-30T15:37:31;11.90;;;7.83;;
908;SDS011;441;51.192;6.788;2023-03-30T15:39:59;8.83;;;8.20;;
908;SDS011;441;51.192;6.788;2023-03-30T15:42:27;9.40;;;8.50;;
908;SDS011;441;51.192;6.788;2023-03-30T15:45:03;9.47;;;8.70;;
908;SDS011;441;51.192;6.788;2023-03-30T15:47:36;11.07;;;10.13;;
908;SDS011;441;51.192;6.788;2023-03-30T15:50:03;8.37;;;8.00;;
908;SDS011;441;51.192;6.788;2023-03-30T15:52:36;9.27;;;8.77;;
908;SDS011;441;51.192;6.788;2023-03-30T15:55:11;8.30;;;8.00;;
908;SDS011;441;51.192;6.788;2023-03-30T15:57:45;8.67;;;8.33;;
908;SDS011;441;51.192;6.788;2023-03-30T16:00:16;9.83;;;9.33;;
908;SDS011;441;51.192;6.788;2023-03-30T16:02:46;8.13;;;7.83;;
908;SDS011;441;51.192;6.788;2023-03-30T16:05:17;8.47;;;7.93;;
908;SDS011;441;51.192;6.788;2023-03-30T16:07:46;8.10;;;7.90;;
908;SDS011;441;51.192;6.788;2023-03-30T16:10:14;9.00;;;8.40;;
908;SDS011;441;51.192;6.788;2023-03-30T16:12:42;8.80;;;8.40;;
908;SDS011;441;51.192;6.788;2023-03-30T16:15:12;8.83;;;8.43;;
908;SDS011;441;51.192;6.788;2023-03-30T16:17:41;8.60;;;8.10;;
908;SDS011;441;51.192;6.788;2023-03-30T16:20:13;7.47;;;7.20;;
908;SDS011;441;51.192;6.788;2023-03-30T16:22:41;8.80;;;8.50;;